Time;durP1;ratioP1;P1;durP2;ratioP2;P2;SDS_P1;SDS_P2;PMS_P1;PMS_P2;Temp;Humidity;BMP_temperature;BMP_pressure;BME280_temperature;BME280_humidity;BME280_pressure;Samples;Min_cycle;Max_cycle;Signal;HPM_P1;HPM_P2
2022/01/25 00:10:00;;;;;;;25.97;18.43;;;5.20;99.90;;;;;;2613796;47;20956;-77
2022/01/25 00:33:31;;;;;;;19.53;16.50;;;5.50;99.90;;;;;;2614167;54;20442;-77
2022/01/25 00:35:57;;;;;;;22.30;17.30;;;5.90;99.90;;;;;;2613180;54;20407;-77
2022/01/25 00:38:23;;;;;;;25.00;18.50;;;5.70;99.90;;;;;;2614516;54;20439;-77
2022/01/25 00:40:49;;;;;;;23.80;16.60;;;5.80;99.90;;;;;;2612569;47;20424;-77
2022/01/25 00:43:15;;;;;;;25.90;19.13;;;5.20;99.90;;;;;;2614808;31;20658;-77
2022/01/25 00:45:41;;;;;;;27.87;19.23;;;5.40;99.90;;;;;;2612560;54;20190;-76
2022/01/25 00:48:09;;;;;;;23.37;16.73;;;5.80;99.90;;;;;;2613559;54;20739;-76
2022/01/25 00:50:41;;;;;;;26.77;18.03;;;6.10;99.90;;;;;;2612562;47;20202;-76
2022/01/25 00:55:33;;;;;;;24.43;18.70;;;6.10;99.90;;;;;;2612642;47;20404;-76
2022/01/25 00:58:01;;;;;;;28.53;19.47;;;5.90;99.90;;;;;;2614394;54;20155;-76
2022/01/25 01:00:27;;;;;;;22.60;17.30;;;6.00;99.90;;;;;;2613532;39;20913;-76
2022/01/25 01:02:54;;;;;;;22.43;14.50;;;5.70;99.90;;;;;;2613329;54;20516;-77
2022/01/25 01:05:21;;;;;;;23.70;16.73;;;5.40;99.90;;;;;;2613278;39;20826;-76
2022/01/25 01:07:47;;;;;;;25.20;17.80;;;5.30;99.90;;;;;;2612431;54;20820;-76
2022/01/25 01:10:17;;;;;;;22.37;15.90;;;5.40;99.90;;;;;;2612309;54;20396;-76
2022/01/25 01:15:36;;;;;;;30.20;17.67;;;5.80;99.90;;;;;;2613628;54;20554;-76
2022/01/25 01:32:46;;;;;;;32.90;17.90;;;5.80;99.90;;;;;;2612716;54;20423;-76
2022/01/25 01:45:41;;;;;;;24.50;17.57;;;5.10;99.90;;;;;;2613763;54;20561;-76
2022/01/25 01:48:24;;;;;;;32.13;20.30;;;5.10;99.90;;;;;;2613141;54;20407;-76
2022/01/25 01:50:50;;;;;;;29.70;18.60;;;4.70;99.90;;;;;;2612110;39;20811;-77
2022/01/25 01:53:16;;;;;;;25.17;17.33;;;5.00;99.90;;;;;;2612968;54;20387;-78
2022/01/25 01:55:42;;;;;;;29.13;17.37;;;4.60;99.90;;;;;;2611968;54;20446;-76
2022/01/25 01:58:07;;;;;;;26.77;19.07;;;4.40;99.90;;;;;;2612501;39;20737;-77
2022/01/25 02:00:41;;;;;;;28.33;18.23;;;4.30;99.90;;;;;;2613518;54;20158;-74
2022/01/25 02:03:07;;;;;;;26.50;18.97;;;4.30;99.90;;;;;;2614797;54;20475;-77
2022/01/25 02:05:34;;;;;;;23.10;17.97;;;4.60;99.90;;;;;;2615186;54;20390;-76
2022/01/25 02:08:00;;;;;;;25.97;18.47;;;4.90;99.90;;;;;;2615177;54;20454;-75
2022/01/25 02:10:27;;;;;;;28.90;19.20;;;4.70;99.90;;;;;;2614565;46;20415;-76
2022/01/25 02:12:53;;;;;;;27.97;19.83;;;4.70;99.90;;;;;;2614910;47;20424;-75
2022/01/25 02:15:21;;;;;;;27.00;17.90;;;4.50;99.90;;;;;;2614728;47;20432;-75
2022/01/25 02:22:23;;;;;;;28.30;18.07;;;4.60;99.90;;;;;;2614652;47;20411;-75
2022/01/25 02:23:25;;;;;;;27.43;18.90;;;4.30;99.90;;;;;;2614492;54;20403;-76
2022/01/25 02:25:57;;;;;;;24.87;16.10;;;4.50;99.90;;;;;;2613901;47;20430;-75
2022/01/25 02:28:27;;;;;;;28.00;19.60;;;4.40;99.90;;;;;;2614784;47;20980;-75
2022/01/25 02:30:54;;;;;;;28.83;18.93;;;4.10;99.90;;;;;;2615071;54;21051;-75
2022/01/25 02:33:20;;;;;;;25.70;18.80;;;4.10;99.90;;;;;;2614910;54;20446;-76
2022/01/25 02:35:46;;;;;;;33.17;20.37;;;4.40;99.90;;;;;;2614452;54;20396;-76
2022/01/25 02:38:14;;;;;;;31.57;20.63;;;4.60;99.90;;;;;;2615558;54;20423;-75
2022/01/25 02:40:40;;;;;;;30.23;19.07;;;5.20;99.90;;;;;;2615800;39;20857;-76
2022/01/25 02:43:07;;;;;;;28.90;20.30;;;5.00;99.90;;;;;;2615424;54;20415;-75
2022/01/25 02:45:35;;;;;;;32.27;18.73;;;5.10;99.90;;;;;;2613504;47;20574;-76
2022/01/25 02:50:49;;;;;;;31.53;20.53;;;4.70;99.90;;;;;;2613767;54;20410;-76
2022/01/25 02:53:15;;;;;;;33.90;20.77;;;4.50;99.90;;;;;;2614902;54;20407;-75
2022/01/25 02:55:41;;;;;;;31.00;21.00;;;4.60;99.90;;;;;;2615471;31;20921;-75
2022/01/25 02:58:08;;;;;;;29.93;19.53;;;4.70;99.90;;;;;;2614279;54;20431;-75
2022/01/25 03:00:35;;;;;;;35.40;20.80;;;4.50;99.90;;;;;;2614631;54;20408;-76
2022/01/25 03:03:00;;;;;;;28.60;20.87;;;4.50;99.90;;;;;;2613619;47;20536;-75
2022/01/25 03:05:28;;;;;;;30.90;19.57;;;4.60;99.90;;;;;;2614118;47;20423;-75
2022/01/25 03:07:55;;;;;;;32.67;20.63;;;4.70;99.90;;;;;;2614533;54;20471;-75
2022/01/25 03:10:21;;;;;;;34.67;21.27;;;5.10;99.90;;;;;;2613870;47;20399;-75
2022/01/25 03:12:52;;;;;;;31.00;20.10;;;5.00;99.90;;;;;;2614489;46;20518;-75
2022/01/25 03:17:57;;;;;;;31.10;20.40;;;5.30;99.90;;;;;;2614941;54;20443;-75
2022/01/25 03:20:34;;;;;;;33.67;21.10;;;5.20;99.90;;;;;;2614276;39;20805;-75
2022/01/25 03:23:05;;;;;;;27.50;18.33;;;4.90;99.90;;;;;;2613668;54;20407;-76
2022/01/25 03:25:31;;;;;;;30.40;19.67;;;4.50;99.90;;;;;;2613308;54;20420;-75
2022/01/25 03:27:57;;;;;;;34.57;20.70;;;4.50;99.90;;;;;;2612874;54;20438;-76
2022/01/25 03:30:25;;;;;;;28.83;20.00;;;4.60;99.90;;;;;;2613089;54;20154;-75
2022/01/25 03:32:51;;;;;;;34.13;20.40;;;4.80;99.90;;;;;;2614563;54;20401;-75
2022/01/25 03:35:16;;;;;;;34.27;18.57;;;5.10;99.90;;;;;;2613694;54;20419;-75
2022/01/25 03:37:42;;;;;;;30.50;20.20;;;4.60;99.90;;;;;;2613636;54;20970;-76
2022/01/25 03:40:09;;;;;;;32.77;21.80;;;4.70;99.90;;;;;;2613600;54;20396;-76
2022/01/25 03:42:37;;;;;;;30.70;21.40;;;5.10;99.90;;;;;;2612933;54;20510;-75
2022/01/25 03:45:05;;;;;;;33.00;22.07;;;5.00;99.90;;;;;;2613809;54;20416;-76
2022/01/25 03:47:44;;;;;;;32.97;20.87;;;5.30;99.90;;;;;;2613589;39;20902;-75
2022/01/25 03:50:10;;;;;;;29.03;21.13;;;5.80;99.90;;;;;;2613469;47;20435;-75
2022/01/25 03:52:37;;;;;;;34.00;23.00;;;5.60;99.90;;;;;;2614133;54;20407;-76
2022/01/25 03:55:06;;;;;;;38.23;21.53;;;5.60;99.90;;;;;;2614460;54;20509;-76
2022/01/25 03:57:32;;;;;;;32.97;21.33;;;5.70;99.90;;;;;;2614108;47;20988;-76
2022/01/25 03:59:59;;;;;;;31.87;21.87;;;5.40;99.90;;;;;;2613463;54;20417;-76
2022/01/25 04:02:29;;;;;;;34.13;22.97;;;5.40;99.90;;;;;;2613162;47;20197;-75
2022/01/25 04:04:57;;;;;;;34.10;22.03;;;4.90;99.90;;;;;;2613581;46;20455;-76
2022/01/25 04:07:31;;;;;;;41.63;21.50;;;4.70;99.90;;;;;;2612980;54;22343;-76
2022/01/25 04:09:56;;;;;;;39.53;24.30;;;4.70;99.90;;;;;;2613757;47;20735;-76
2022/01/25 04:12:22;;;;;;;35.13;22.80;;;4.30;99.90;;;;;;2613374;54;20414;-75
2022/01/25 04:14:48;;;;;;;30.90;21.50;;;4.80;99.90;;;;;;2614392;46;20685;-75
2022/01/25 04:17:18;;;;;;;31.90;21.93;;;5.10;99.90;;;;;;2614371;54;20504;-75
2022/01/25 04:19:57;;;;;;;36.47;23.93;;;5.20;99.90;;;;;;2614522;47;20167;-76
2022/01/25 04:25:16;;;;;;;35.40;23.00;;;5.30;99.90;;;;;;2614025;54;20551;-75
2022/01/25 04:27:42;;;;;;;37.50;23.53;;;5.30;99.90;;;;;;2613696;39;20482;-76
2022/01/25 04:30:09;;;;;;;37.60;23.10;;;5.10;99.90;;;;;;2613728;54;20422;-76
2022/01/25 04:35:14;;;;;;;37.10;24.33;;;5.00;99.90;;;;;;2614357;47;20408;-76
2022/01/25 04:57:15;;;;;;;29.03;20.13;;;4.50;99.90;;;;;;2613074;47;20408;-76
2022/01/25 04:59:36;;;;;;;37.27;23.87;;;4.30;99.90;;;;;;2613461;54;20451;-75
2022/01/25 05:02:12;;;;;;;37.63;24.47;;;4.60;99.90;;;;;;2614644;54;20415;-75
2022/01/25 05:04:44;;;;;;;36.40;22.93;;;4.70;99.90;;;;;;2614751;54;20415;-75
2022/01/25 05:07:37;;;;;;;40.07;23.40;;;4.30;99.90;;;;;;2614775;54;20411;-75
2022/01/25 05:09:57;;;;;;;34.17;23.07;;;4.50;99.90;;;;;;2612336;47;21067;-75
2022/01/25 05:12:35;;;;;;;38.13;22.80;;;4.80;99.90;;;;;;2613925;54;20491;-75
2022/01/25 05:15:18;;;;;;;35.53;22.80;;;4.90;99.90;;;;;;2614444;54;20846;-75
2022/01/25 05:17:46;;;;;;;38.90;24.53;;;5.10;99.90;;;;;;2615322;54;20427;-75
2022/01/25 05:22:56;;;;;;;31.70;23.63;;;5.40;99.90;;;;;;2617723;54;20411;-75
2022/01/25 05:25:45;;;;;;;37.17;25.00;;;5.20;99.90;;;;;;2618027;54;20948;-75
2022/01/25 05:28:11;;;;;;;41.80;23.83;;;4.90;99.90;;;;;;2613766;54;20275;-75
2022/01/25 05:30:38;;;;;;;39.03;24.47;;;5.10;99.90;;;;;;2612752;54;20817;-75
2022/01/25 05:33:03;;;;;;;37.60;25.23;;;5.40;99.90;;;;;;2613378;54;20964;-75
2022/01/25 05:35:29;;;;;;;40.03;24.60;;;5.40;99.90;;;;;;2612580;54;20400;-74
2022/01/25 05:37:55;;;;;;;41.13;24.83;;;5.40;99.90;;;;;;2613181;54;20151;-76
2022/01/25 05:40:41;;;;;;;32.30;21.97;;;5.20;99.90;;;;;;2612142;54;20466;-75
2022/01/25 05:48:12;;;;;;;35.27;22.63;;;4.30;99.90;;;;;;2612537;47;20969;-75
2022/01/25 05:50:38;;;;;;;35.23;23.20;;;4.30;99.90;;;;;;2611736;47;20448;-75
2022/01/25 05:53:04;;;;;;;38.30;22.77;;;4.20;99.90;;;;;;2612771;39;20903;-75
2022/01/25 05:55:29;;;;;;;33.53;22.60;;;4.30;99.90;;;;;;2613028;54;20262;-75
2022/01/25 05:57:56;;;;;;;38.53;23.50;;;4.60;99.90;;;;;;2614510;39;20826;-74
2022/01/25 06:00:22;;;;;;;39.03;23.63;;;5.10;99.90;;;;;;2612863;54;20192;-75
2022/01/25 06:02:53;;;;;;;41.93;24.47;;;5.10;99.90;;;;;;2612847;54;20412;-76
2022/01/25 06:05:19;;;;;;;46.00;24.53;;;5.00;99.90;;;;;;2613173;46;20223;-75
2022/01/25 06:07:44;;;;;;;33.57;21.20;;;5.10;99.90;;;;;;2614144;47;20473;-75
2022/01/25 06:10:11;;;;;;;39.10;22.80;;;4.50;99.90;;;;;;2614013;54;20208;-74
2022/01/25 06:12:37;;;;;;;38.20;23.33;;;4.60;99.90;;;;;;2615142;54;20158;-75
2022/01/25 06:15:04;;;;;;;39.63;23.53;;;4.80;99.90;;;;;;2614351;47;20419;-75
2022/01/25 06:17:29;;;;;;;37.53;22.13;;;4.90;99.90;;;;;;2616067;54;20396;-75
2022/01/25 06:19:55;;;;;;;36.33;21.23;;;4.90;99.90;;;;;;2614406;46;20435;-75
2022/01/25 06:22:22;;;;;;;35.57;21.67;;;4.80;99.90;;;;;;2615124;54;20155;-75
2022/01/25 06:24:48;;;;;;;32.47;19.90;;;4.50;99.90;;;;;;2613227;51;21027;-76
2022/01/25 06:27:14;;;;;;;32.40;22.03;;;4.80;99.90;;;;;;2614498;54;20415;-75
2022/01/25 06:29:40;;;;;;;33.83;20.17;;;5.00;99.90;;;;;;2613813;54;20162;-76
2022/01/25 06:32:06;;;;;;;31.00;20.23;;;4.60;99.90;;;;;;2615812;54;20158;-76
2022/01/25 06:34:33;;;;;;;35.57;21.17;;;4.60;99.90;;;;;;2615581;31;20849;-76
2022/01/25 06:36:59;;;;;;;36.40;21.90;;;4.50;99.90;;;;;;2615260;54;20415;-76
2022/01/25 06:39:25;;;;;;;32.50;22.23;;;4.60;99.90;;;;;;2615696;31;21079;-75
2022/01/25 06:41:52;;;;;;;37.50;23.97;;;4.50;99.90;;;;;;2613280;47;20411;-78
2022/01/25 06:44:17;;;;;;;38.43;22.50;;;4.50;99.90;;;;;;2614226;54;20522;-75
2022/01/25 06:46:46;;;;;;;39.90;22.23;;;4.30;99.90;;;;;;2614211;54;20415;-75
2022/01/25 06:49:15;;;;;;;40.90;23.03;;;4.70;99.90;;;;;;2615355;54;20155;-75
2022/01/25 06:51:42;;;;;;;34.47;22.27;;;4.60;99.90;;;;;;2614508;54;20490;-76
2022/01/25 06:54:08;;;;;;;41.67;24.27;;;4.30;99.90;;;;;;2615087;47;20418;-76
2022/01/25 06:56:34;;;;;;;37.00;22.10;;;4.30;99.90;;;;;;2613948;54;20412;-76
2022/01/25 06:59:00;;;;;;;39.77;22.53;;;4.60;99.90;;;;;;2613375;47;20416;-76
2022/01/25 07:01:26;;;;;;;37.70;23.33;;;4.70;99.90;;;;;;2613839;54;20444;-74
2022/01/25 07:03:51;;;;;;;40.20;22.40;;;4.50;99.90;;;;;;2614698;54;20188;-75
2022/01/25 07:06:17;;;;;;;37.03;22.80;;;4.50;99.90;;;;;;2611763;47;20265;-76
2022/01/25 07:08:46;;;;;;;32.70;21.33;;;4.10;99.90;;;;;;2612083;47;20206;-77
2022/01/25 07:11:13;;;;;;;37.17;22.27;;;4.20;99.90;;;;;;2613379;54;20411;-76
2022/01/25 07:13:39;;;;;;;35.43;23.20;;;4.30;99.90;;;;;;2613556;54;20551;-76
2022/01/25 07:16:05;;;;;;;38.73;22.30;;;4.50;99.90;;;;;;2614910;31;20843;-77
2022/01/25 07:18:32;;;;;;;36.30;21.40;;;4.70;99.90;;;;;;2613786;54;20427;-77
2022/01/25 07:20:58;;;;;;;38.40;21.60;;;4.90;99.90;;;;;;2612184;54;20555;-76
2022/01/25 07:23:24;;;;;;;48.33;25.47;;;5.10;99.90;;;;;;2612644;47;20419;-77
2022/01/25 07:25:50;;;;;;;33.10;21.60;;;4.80;99.90;;;;;;2608455;54;20431;-77
2022/01/25 07:28:16;;;;;;;37.70;23.80;;;4.70;99.90;;;;;;2612305;54;20181;-77
2022/01/25 07:30:43;;;;;;;39.77;22.63;;;4.90;99.90;;;;;;2611131;47;20170;-76
2022/01/25 07:33:09;;;;;;;44.80;23.67;;;4.80;99.90;;;;;;2611468;54;20542;-77
2022/01/25 07:35:36;;;;;;;40.70;24.93;;;5.00;99.90;;;;;;2611630;54;20403;-77
2022/01/25 07:38:03;;;;;;;40.50;24.87;;;4.80;99.90;;;;;;2610269;47;20178;-75
2022/01/25 07:40:29;;;;;;;37.30;23.60;;;4.70;99.90;;;;;;2611723;46;20451;-76
2022/01/25 07:42:56;;;;;;;47.63;23.80;;;4.80;99.90;;;;;;2611015;39;20803;-82
2022/01/25 07:45:22;;;;;;;39.30;23.50;;;4.40;99.90;;;;;;2613567;47;20423;-79
2022/01/25 07:47:48;;;;;;;41.47;23.63;;;4.30;99.90;;;;;;2616189;47;20430;-81
2022/01/25 07:50:16;;;;;;;37.70;24.03;;;4.40;99.90;;;;;;2613788;54;20960;-79
2022/01/25 07:52:44;;;;;;;40.07;21.07;;;4.30;99.90;;;;;;2614701;54;20143;-80
2022/01/25 07:55:10;;;;;;;41.80;22.20;;;4.30;99.90;;;;;;2614689;47;20518;-80
2022/01/25 07:57:37;;;;;;;44.30;23.57;;;4.20;99.90;;;;;;2614223;54;20419;-85
2022/01/25 08:00:05;;;;;;;36.27;21.97;;;4.20;99.90;;;;;;2616123;46;20455;-83
2022/01/25 08:02:40;;;;;;;43.17;21.90;;;4.40;99.90;;;;;;2614963;54;20403;-82
2022/01/25 08:05:06;;;;;;;40.83;24.13;;;4.40;99.90;;;;;;2616385;54;20950;-82
2022/01/25 08:07:32;;;;;;;44.93;23.27;;;4.20;99.90;;;;;;2616019;47;20440;-80
2022/01/25 08:09:58;;;;;;;40.00;23.33;;;4.20;99.90;;;;;;2615675;54;20410;-81
2022/01/25 08:12:25;;;;;;;44.73;24.07;;;4.30;99.90;;;;;;2615515;54;20392;-80
2022/01/25 08:14:53;;;;;;;38.60;22.27;;;4.80;99.90;;;;;;2616030;51;20177;-82
2022/01/25 08:17:19;;;;;;;37.37;22.00;;;5.10;99.90;;;;;;2616645;51;20568;-80
2022/01/25 08:19:45;;;;;;;41.33;25.13;;;5.00;99.90;;;;;;2616340;54;21957;-80
2022/01/25 08:22:12;;;;;;;46.23;24.97;;;5.00;99.90;;;;;;2615356;47;21402;-80
2022/01/25 08:24:38;;;;;;;43.90;26.70;;;4.90;99.90;;;;;;2615835;54;20151;-80
2022/01/25 08:27:05;;;;;;;47.10;25.53;;;4.70;99.90;;;;;;2616165;47;20466;-81
2022/01/25 08:29:30;;;;;;;35.83;21.27;;;4.30;99.90;;;;;;2614989;54;20416;-79
2022/01/25 08:31:56;;;;;;;43.93;25.03;;;4.30;99.90;;;;;;2615787;47;20457;-82
2022/01/25 08:34:23;;;;;;;35.97;23.00;;;4.40;99.90;;;;;;2615897;54;20150;-81
2022/01/25 08:36:49;;;;;;;38.17;24.60;;;4.80;99.90;;;;;;2615109;47;20249;-82
2022/01/25 08:39:15;;;;;;;46.23;26.50;;;4.70;99.90;;;;;;2616580;47;20484;-81
2022/01/25 08:41:43;;;;;;;43.40;23.30;;;4.90;99.90;;;;;;2615802;47;20542;-80
2022/01/25 08:44:08;;;;;;;41.30;25.77;;;4.60;99.90;;;;;;2615478;54;20415;-81
2022/01/25 08:46:34;;;;;;;40.77;24.27;;;4.50;99.90;;;;;;2614857;47;20403;-82
2022/01/25 08:49:00;;;;;;;49.97;28.77;;;4.60;99.90;;;;;;2615536;47;20167;-81
2022/01/25 08:51:26;;;;;;;45.77;25.60;;;4.20;99.90;;;;;;2615899;54;20177;-83
2022/01/25 08:53:52;;;;;;;44.13;24.43;;;4.40;99.90;;;;;;2615087;54;20147;-82
2022/01/25 08:56:19;;;;;;;52.30;28.17;;;5.00;99.90;;;;;;2615732;54;20415;-80
2022/01/25 08:58:44;;;;;;;50.37;26.00;;;5.00;99.90;;;;;;2614608;54;20159;-81
2022/01/25 09:01:10;;;;;;;42.70;24.03;;;5.80;99.90;;;;;;2615222;54;20437;-82
2022/01/25 09:03:36;;;;;;;44.37;25.60;;;5.80;99.90;;;;;;2616370;54;20223;-83
2022/01/25 09:06:03;;;;;;;44.70;24.83;;;5.40;99.90;;;;;;2616700;54;20167;-82
2022/01/25 09:08:29;;;;;;;43.37;26.70;;;5.20;99.90;;;;;;2615516;54;21146;-82
2022/01/25 09:11:02;;;;;;;50.63;28.10;;;5.30;99.90;;;;;;2615605;47;20419;-83
2022/01/25 09:13:30;;;;;;;58.00;30.17;;;5.40;99.90;;;;;;2615805;47;20404;-81
2022/01/25 09:15:57;;;;;;;49.23;27.93;;;5.70;99.90;;;;;;2616240;39;20978;-81
2022/01/25 09:18:24;;;;;;;47.60;27.47;;;5.10;99.90;;;;;;2616566;47;20523;-84
2022/01/25 09:20:51;;;;;;;49.40;30.17;;;5.10;99.90;;;;;;2616230;47;20492;-81
2022/01/25 09:23:19;;;;;;;48.30;28.80;;;5.30;99.90;;;;;;2614842;39;20485;-81
2022/01/25 09:25:47;;;;;;;46.93;28.80;;;5.70;99.90;;;;;;2615505;54;20524;-81
2022/01/25 09:28:15;;;;;;;52.43;27.63;;;5.10;99.90;;;;;;2617656;47;20454;-82
2022/01/25 09:30:41;;;;;;;50.23;28.60;;;4.70;99.90;;;;;;2616836;47;20446;-82
2022/01/25 09:33:07;;;;;;;47.87;26.50;;;4.50;99.90;;;;;;2618584;47;20940;-82
2022/01/25 09:35:33;;;;;;;42.90;25.50;;;4.80;99.90;;;;;;2616669;54;20419;-83
2022/01/25 09:37:59;;;;;;;45.20;25.53;;;4.90;99.90;;;;;;2619194;47;20426;-85
2022/01/25 09:40:25;;;;;;;41.07;25.30;;;4.50;99.90;;;;;;2623102;47;21010;-85
2022/01/25 09:42:54;;;;;;;43.30;26.90;;;4.10;99.90;;;;;;2617284;46;20190;-83
2022/01/25 09:45:21;;;;;;;45.90;28.00;;;4.50;99.90;;;;;;2616173;47;20634;-81
2022/01/25 09:47:48;;;;;;;47.37;28.37;;;4.90;99.90;;;;;;2616895;46;20420;-83
2022/01/25 09:50:15;;;;;;;54.13;30.47;;;5.20;99.90;;;;;;2615293;39;20860;-82
2022/01/25 09:52:43;;;;;;;51.10;30.70;;;5.40;99.90;;;;;;2618241;54;20408;-82
2022/01/25 09:55:15;;;;;;;53.70;31.20;;;5.40;99.90;;;;;;2616004;47;20407;-81
2022/01/25 09:57:42;;;;;;;56.33;29.50;;;5.80;99.90;;;;;;2616293;54;20996;-81
2022/01/25 10:00:12;;;;;;;53.53;32.90;;;5.40;99.90;;;;;;2616223;54;20426;-81
2022/01/25 10:02:52;;;;;;;60.43;32.97;;;5.40;99.90;;;;;;2616063;54;20505;-82
2022/01/25 10:05:25;;;;;;;60.83;31.33;;;5.40;99.90;;;;;;2616777;46;20426;-83
2022/01/25 10:08:02;;;;;;;57.97;30.97;;;5.70;99.90;;;;;;2617455;47;20427;-82
2022/01/25 10:10:30;;;;;;;51.13;29.90;;;6.10;99.90;;;;;;2615313;46;20474;-80
2022/01/25 10:13:08;;;;;;;59.00;33.43;;;5.70;99.90;;;;;;2616077;54;20432;-82
2022/01/25 10:16:01;;;;;;;53.00;31.27;;;5.50;99.90;;;;;;2616452;47;20921;-81
2022/01/25 10:18:58;;;;;;;49.40;30.50;;;5.70;99.90;;;;;;2616768;54;20408;-80
2022/01/25 10:21:51;;;;;;;49.97;30.30;;;5.50;99.90;;;;;;2617059;39;20439;-80
2022/01/25 10:24:18;;;;;;;67.17;33.33;;;5.30;99.90;;;;;;2616538;39;20927;-79
2022/01/25 10:26:53;;;;;;;59.50;32.20;;;5.50;99.90;;;;;;2616171;46;20419;-81
2022/01/25 10:29:24;;;;;;;58.30;31.80;;;5.90;99.90;;;;;;2615471;47;22747;-80
2022/01/25 10:31:59;;;;;;;58.03;33.63;;;6.00;99.90;;;;;;2615956;47;20427;-79
2022/01/25 10:34:50;;;;;;;64.27;34.83;;;6.00;99.90;;;;;;2616326;54;20387;-80
2022/01/25 10:37:22;;;;;;;62.93;34.67;;;6.60;99.90;;;;;;2616434;47;21024;-81
2022/01/25 10:39:52;;;;;;;65.77;33.47;;;6.80;99.90;;;;;;2616306;39;20803;-80
2022/01/25 10:42:17;;;;;;;61.17;34.07;;;6.80;99.90;;;;;;2616647;39;20825;-80
2022/01/25 10:44:53;;;;;;;70.43;34.50;;;7.00;99.90;;;;;;2615420;54;20527;-80
2022/01/25 10:47:39;;;;;;;57.97;31.73;;;7.00;99.90;;;;;;2615445;54;20208;-82
2022/01/25 10:50:18;;;;;;;41.50;25.07;;;6.70;99.90;;;;;;2616508;39;20817;-83
2022/01/25 10:52:46;;;;;;;54.47;28.73;;;6.40;99.90;;;;;;2616793;54;20950;-80
2022/01/25 10:55:14;;;;;;;43.83;26.90;;;6.20;99.90;;;;;;2616116;54;20426;-81
2022/01/25 10:57:40;;;;;;;47.63;28.03;;;6.00;99.90;;;;;;2616489;54;20406;-81
2022/01/25 11:00:11;;;;;;;50.57;27.87;;;5.70;99.90;;;;;;2617378;47;20418;-81
2022/01/25 11:02:51;;;;;;;42.07;27.27;;;5.90;99.90;;;;;;2617031;54;20403;-84
2022/01/25 11:05:18;;;;;;;46.97;27.13;;;5.60;99.90;;;;;;2618079;54;20400;-80
2022/01/25 11:07:46;;;;;;;53.37;30.30;;;5.00;99.90;;;;;;2617269;46;20412;-82
2022/01/25 11:10:17;;;;;;;48.13;29.47;;;5.10;99.90;;;;;;2616356;54;20535;-81
2022/01/25 11:12:58;;;;;;;45.73;27.67;;;5.20;99.90;;;;;;2616673;47;20454;-82
2022/01/25 11:15:25;;;;;;;49.20;28.43;;;5.30;99.90;;;;;;2617916;54;20411;-82
2022/01/25 11:17:52;;;;;;;51.53;31.60;;;5.60;99.90;;;;;;2619881;54;20406;-82
2022/01/25 11:20:18;;;;;;;46.37;27.47;;;5.60;99.90;;;;;;2615154;54;20405;-82
2022/01/25 11:22:45;;;;;;;44.77;27.47;;;5.10;99.90;;;;;;2617394;54;20960;-83
2022/01/25 11:25:14;;;;;;;47.00;29.90;;;5.20;99.90;;;;;;2617446;47;20159;-81
2022/01/25 11:27:42;;;;;;;43.83;24.67;;;5.60;99.90;;;;;;2616508;47;20420;-83
2022/01/25 11:30:15;;;;;;;48.10;27.50;;;5.50;99.90;;;;;;2617633;54;20428;-80
2022/01/25 11:32:45;;;;;;;47.30;27.07;;;5.10;99.90;;;;;;2616767;47;20536;-80
2022/01/25 11:35:13;;;;;;;46.73;28.20;;;5.30;99.90;;;;;;2617053;46;20403;-81
2022/01/25 11:37:42;;;;;;;50.13;30.70;;;5.40;99.90;;;;;;2616749;54;21050;-81
2022/01/25 11:40:24;;;;;;;49.23;28.40;;;5.50;99.90;;;;;;2617338;46;20535;-81
2022/01/25 11:42:53;;;;;;;42.97;29.43;;;5.90;99.90;;;;;;2617648;54;20433;-82
2022/01/25 11:45:22;;;;;;;49.80;29.70;;;6.40;99.90;;;;;;2616899;54;20431;-81
2022/01/25 11:47:50;;;;;;;57.47;32.13;;;6.60;99.90;;;;;;2616657;39;20480;-81
2022/01/25 11:50:16;;;;;;;53.77;30.80;;;6.50;99.90;;;;;;2616537;54;20489;-80
2022/01/25 11:52:50;;;;;;;58.73;33.83;;;6.80;99.90;;;;;;2616345;47;20412;-82
2022/01/25 11:55:41;;;;;;;73.30;35.37;;;6.80;99.90;;;;;;2616947;39;20797;-80
2022/01/25 11:58:32;;;;;;;63.10;33.73;;;7.00;99.90;;;;;;2616535;54;20416;-81
2022/01/25 12:01:00;;;;;;;56.07;33.90;;;7.00;99.90;;;;;;2616520;39;21104;-82
2022/01/25 12:03:44;;;;;;;55.87;31.77;;;6.80;99.90;;;;;;2617043;54;20391;-82
2022/01/25 12:06:44;;;;;;;47.53;29.07;;;6.90;99.90;;;;;;2617710;54;20400;-84
2022/01/25 12:12:01;;;;;;;49.87;30.60;;;6.20;99.90;;;;;;2617179;47;20419;-83
2022/01/25 12:14:41;;;;;;;53.53;30.90;;;6.60;99.90;;;;;;2616558;47;20407;-83
2022/01/25 12:17:06;;;;;;;51.63;28.80;;;6.60;99.90;;;;;;2615875;54;20399;-80
2022/01/25 12:19:45;;;;;;;47.90;30.00;;;6.60;99.90;;;;;;2617117;54;20996;-82
2022/01/25 12:27:41;;;;;;;62.17;34.60;;;6.40;99.90;;;;;;2618381;47;20519;-83
2022/01/25 12:30:15;;;;;;;62.10;30.60;;;6.10;99.90;;;;;;2618235;39;20793;-84
2022/01/25 12:33:24;;;;;;;64.70;35.10;;;6.40;99.90;;;;;;2617893;47;20408;-81
2022/01/25 12:36:01;;;;;;;61.43;33.00;;;6.60;99.90;;;;;;2615913;54;20403;-84
2022/01/25 12:38:39;;;;;;;58.80;33.73;;;6.70;99.90;;;;;;2616240;47;20426;-82
2022/01/25 12:41:12;;;;;;;62.97;33.10;;;6.70;99.90;;;;;;2616374;47;20952;-84
2022/01/25 12:43:40;;;;;;;63.30;33.77;;;6.40;99.90;;;;;;2617208;54;20400;-83
2022/01/25 12:46:12;;;;;;;67.87;36.47;;;6.50;99.90;;;;;;2615468;46;20530;-81
2022/01/25 12:48:53;;;;;;;58.90;31.03;;;6.40;99.90;;;;;;2615465;47;21112;-82
2022/01/25 12:51:22;;;;;;;56.97;32.53;;;6.60;99.90;;;;;;2615754;54;20987;-83
2022/01/25 12:53:53;;;;;;;58.60;34.80;;;6.50;99.90;;;;;;2615713;54;20428;-83
2022/01/25 12:56:26;;;;;;;53.23;31.80;;;6.70;99.90;;;;;;2615104;54;21293;-82
2022/01/25 12:58:57;;;;;;;57.27;31.80;;;6.40;99.90;;;;;;2615762;47;20470;-82
2022/01/25 13:01:26;;;;;;;50.67;28.50;;;6.00;99.90;;;;;;2616985;54;20386;-82
2022/01/25 13:03:57;;;;;;;49.37;28.33;;;5.30;99.90;;;;;;2617067;47;20412;-86
2022/01/25 13:06:30;;;;;;;54.40;32.30;;;5.40;99.90;;;;;;2617188;47;20404;-80
2022/01/25 13:12:11;;;;;;;56.50;34.60;;;6.10;99.90;;;;;;2617285;47;20395;-81
2022/01/25 13:17:17;;;;;;;58.00;31.40;;;6.70;99.90;;;;;;2618188;54;20415;-80
2022/01/25 13:19:57;;;;;;;57.63;32.07;;;7.00;99.90;;;;;;2618608;39;20791;-81
2022/01/25 13:22:28;;;;;;;53.87;29.57;;;7.00;99.90;;;;;;2619121;54;20395;-78
2022/01/25 13:27:52;;;;;;;55.80;32.80;;;6.80;99.90;;;;;;2618261;47;20411;-81
2022/01/25 13:30:43;;;;;;;57.50;30.40;;;6.60;99.90;;;;;;2618197;47;20434;-84
2022/01/25 13:33:14;;;;;;;51.67;31.97;;;6.80;99.90;;;;;;2616961;54;20449;-81
2022/01/25 13:35:47;;;;;;;49.83;31.77;;;7.00;99.90;;;;;;2616948;47;20514;-81
2022/01/25 13:38:25;;;;;;;53.83;29.70;;;6.80;99.90;;;;;;2616581;54;20528;-80
2022/01/25 13:46:36;;;;;;;49.13;27.20;;;6.30;99.90;;;;;;2617958;39;20834;-82
2022/01/25 13:49:05;;;;;;;52.70;30.83;;;5.60;99.90;;;;;;2619125;47;20444;-82
2022/01/25 13:51:47;;;;;;;52.47;30.87;;;5.70;99.90;;;;;;2618170;46;20487;-80
2022/01/25 13:54:16;;;;;;;51.73;28.50;;;5.80;99.90;;;;;;2618015;39;20546;-82
2022/01/25 13:56:42;;;;;;;52.23;28.60;;;5.60;99.90;;;;;;2617438;54;20479;-82
2022/01/25 13:59:09;;;;;;;46.90;27.60;;;5.60;99.90;;;;;;2617767;39;20789;-81
2022/01/25 14:01:39;;;;;;;55.10;29.57;;;5.20;99.90;;;;;;2617775;54;20450;-81
2022/01/25 14:04:25;;;;;;;55.93;33.03;;;5.40;99.90;;;;;;2617390;54;20413;-82
2022/01/25 14:06:58;;;;;;;47.50;28.87;;;5.90;99.90;;;;;;2616324;54;20419;-81
2022/01/25 14:09:30;;;;;;;58.03;31.27;;;6.00;99.90;;;;;;2616266;54;20426;-82
2022/01/25 14:25:44;;;;;;;60.03;31.23;;;6.00;99.90;;;;;;2617152;54;20430;-82
2022/01/25 14:28:23;;;;;;;51.13;31.07;;;6.20;99.90;;;;;;2617302;54;20385;-82
2022/01/25 14:30:52;;;;;;;51.00;29.90;;;6.30;99.90;;;;;;2617080;54;20418;-83
2022/01/25 14:33:27;;;;;;;53.20;30.73;;;6.20;99.90;;;;;;2617509;54;20448;-83
2022/01/25 14:36:01;;;;;;;49.20;30.03;;;6.00;99.90;;;;;;2616959;47;20494;-82
2022/01/25 14:38:58;;;;;;;55.57;29.90;;;5.80;99.90;;;;;;2616635;54;20430;-83
2022/01/25 14:41:32;;;;;;;57.80;30.17;;;5.50;99.90;;;;;;2616382;39;20795;-83
2022/01/25 14:44:05;;;;;;;56.10;32.00;;;5.50;99.90;;;;;;2615102;54;20423;-84
2022/01/25 14:46:42;;;;;;;56.53;31.10;;;5.80;99.90;;;;;;2616045;47;20415;-82
2022/01/25 14:49:17;;;;;;;54.60;33.00;;;6.00;99.90;;;;;;2614811;47;20438;-82
2022/01/25 14:52:05;;;;;;;46.10;28.97;;;6.20;99.90;;;;;;2615091;54;20993;-83
2022/01/25 14:54:33;;;;;;;60.87;32.63;;;6.20;99.90;;;;;;2615623;47;20431;-82
2022/01/25 14:57:05;;;;;;;52.20;30.30;;;6.10;99.90;;;;;;2615366;54;20411;-82
2022/01/25 14:59:34;;;;;;;49.10;28.20;;;5.90;99.90;;;;;;2615251;54;20392;-82
2022/01/25 15:02:12;;;;;;;67.63;33.67;;;5.90;99.90;;;;;;2616645;54;20503;-81
2022/01/25 15:04:41;;;;;;;53.50;29.83;;;6.30;99.90;;;;;;2616577;47;20422;-83
2022/01/25 15:07:09;;;;;;;58.87;34.10;;;6.80;99.90;;;;;;2615800;54;20431;-84